Time;durP1;ratioP1;P1;durP2;ratioP2;P2;SDS_P1;SDS_P2;PMS_P1;PMS_P2;Temp;Humidity;BMP_temperature;BMP_pressure;BME280_temperature;BME280_humidity;BME280_pressure;Samples;Min_cycle;Max_cycle;Signal;HPM_P1;HPM_P2
2021/12/07 00:01:33;;;;;;;0.00;0.00;;;3.00;87.30;;;;;;3932701;30;20064;-58
2021/12/07 00:03:57;;;;;;;0.00;0.00;;;3.00;87.40;;;;;;3920719;30;20044;-59
2021/12/07 00:06:19;;;;;;;0.00;0.00;;;3.00;87.40;;;;;;3932486;30;20053;-58
2021/12/07 00:08:43;;;;;;;0.00;0.00;;;3.00;87.60;;;;;;3932929;30;20459;-58
2021/12/07 00:11:06;;;;;;;0.00;0.00;;;3.10;87.90;;;;;;3932603;30;20063;-58
2021/12/07 00:13:32;;;;;;;0.00;0.00;;;3.20;87.80;;;;;;3932814;30;20135;-60
2021/12/07 00:15:56;;;;;;;0.00;0.00;;;3.40;87.50;;;;;;3945248;30;20063;-58
2021/12/07 00:18:18;;;;;;;0.00;0.00;;;3.40;86.90;;;;;;3932275;30;20063;-58
2021/12/07 00:20:41;;;;;;;0.00;0.00;;;3.40;86.90;;;;;;3932571;30;20076;-56
2021/12/07 00:23:08;;;;;;;0.00;0.00;;;3.50;87.10;;;;;;3932781;30;20438;-58
2021/12/07 00:25:31;;;;;;;0.00;0.00;;;3.50;86.80;;;;;;3932522;30;20551;-58
2021/12/07 00:27:53;;;;;;;0.00;0.00;;;3.50;86.30;;;;;;3932757;30;20048;-58
2021/12/07 00:30:16;;;;;;;0.00;0.00;;;3.70;86.40;;;;;;3932250;30;20491;-58
2021/12/07 00:32:46;;;;;;;0.00;0.00;;;3.80;86.20;;;;;;3920324;30;20498;-58
2021/12/07 00:35:45;;;;;;;0.00;0.00;;;4.00;85.90;;;;;;3932466;30;20048;-58
2021/12/07 00:38:09;;;;;;;0.00;0.00;;;4.00;85.60;;;;;;3932512;30;20055;-58
2021/12/07 00:40:32;;;;;;;0.00;0.00;;;4.00;84.90;;;;;;3931881;30;20082;-58
2021/12/07 00:42:54;;;;;;;0.00;0.00;;;3.90;85.60;;;;;;3932338;30;20136;-58
2021/12/07 00:45:20;;;;;;;0.00;0.00;;;3.90;87.20;;;;;;3932384;30;20511;-58
2021/12/07 00:47:42;;;;;;;0.00;0.00;;;3.80;88.20;;;;;;3932434;30;20056;-58
2021/12/07 00:50:08;;;;;;;0.00;0.00;;;3.80;88.80;;;;;;3932471;30;20048;-58
2021/12/07 00:52:30;;;;;;;0.00;0.00;;;3.90;89.20;;;;;;3931831;30;20471;-58
2021/12/07 00:54:53;;;;;;;0.00;0.00;;;3.80;90.00;;;;;;3932281;30;20612;-59
2021/12/07 00:57:16;;;;;;;0.00;0.00;;;3.90;90.20;;;;;;3932333;30;20044;-58
2021/12/07 00:59:38;;;;;;;0.00;0.00;;;3.90;90.20;;;;;;3932433;30;20056;-58
2021/12/07 01:02:02;;;;;;;0.00;0.00;;;4.00;90.30;;;;;;3919707;30;20440;-58
2021/12/07 01:04:28;;;;;;;0.00;0.00;;;3.90;90.50;;;;;;3931792;30;20155;-58
2021/12/07 01:09:37;;;;;;;0.00;0.00;;;3.90;90.70;;;;;;3932131;30;20052;-58
2021/12/07 01:25:34;;;;;;;0.00;0.00;;;3.60;91.70;;;;;;3941215;30;20051;-58
2021/12/07 01:28:02;;;;;;;0.00;0.00;;;3.50;91.90;;;;;;3931852;30;20056;-58
2021/12/07 01:30:39;;;;;;;0.00;0.00;;;3.40;92.50;;;;;;3943968;30;20056;-58
2021/12/07 01:39:33;;;;;;;0.00;0.00;;;3.20;93.00;;;;;;3944204;30;20121;-58
2021/12/07 01:40:55;;;;;;;0.00;0.00;;;3.10;93.40;;;;;;3941950;30;20115;-59
2021/12/07 01:46:33;;;;;;;0.00;0.00;;;2.80;94.10;;;;;;3944252;30;20055;-59
2021/12/07 01:52:11;;;;;;;0.00;0.00;;;2.50;95.00;;;;;;3944043;30;20048;-58
2021/12/07 01:59:45;;;;;;;0.00;0.00;;;2.90;94.70;;;;;;3944188;30;20569;-58
2021/12/07 02:02:13;;;;;;;0.00;0.00;;;2.80;94.60;;;;;;3943969;30;20575;-58
2021/12/07 02:04:37;;;;;;;0.00;0.00;;;2.70;94.90;;;;;;3943859;30;20047;-59
2021/12/07 02:07:03;;;;;;;0.00;0.00;;;2.60;95.10;;;;;;3931816;30;20511;-58
2021/12/07 02:09:26;;;;;;;0.00;0.00;;;2.50;95.30;;;;;;3944001;30;20051;-59
2021/12/07 02:11:58;;;;;;;0.00;0.00;;;2.50;95.60;;;;;;3943767;30;20135;-58
2021/12/07 02:14:20;;;;;;;0.00;0.00;;;2.50;95.70;;;;;;3943596;30;20058;-59
2021/12/07 02:16:50;;;;;;;0.00;0.00;;;2.70;95.60;;;;;;3944118;30;20048;-58
2021/12/07 02:19:15;;;;;;;0.00;0.00;;;2.70;95.40;;;;;;3944081;30;20130;-59
2021/12/07 02:21:37;;;;;;;0.00;0.00;;;2.90;95.50;;;;;;3943770;30;20048;-58
2021/12/07 02:24:10;;;;;;;0.00;0.00;;;2.90;95.10;;;;;;3931525;30;20102;-59
2021/12/07 02:26:32;;;;;;;0.00;0.00;;;2.70;95.30;;;;;;3931259;30;20423;-58
2021/12/07 02:28:57;;;;;;;0.00;0.00;;;2.70;95.60;;;;;;3934044;30;20531;-57
2021/12/07 02:31:20;;;;;;;0.00;0.00;;;2.90;95.50;;;;;;3934088;30;20067;-57
2021/12/07 02:33:43;;;;;;;0.00;0.00;;;2.90;95.40;;;;;;3931752;30;20057;-59
2021/12/07 02:36:06;;;;;;;0.00;0.00;;;2.90;95.30;;;;;;3919620;30;20106;-58
2021/12/07 02:38:30;;;;;;;0.00;0.00;;;2.80;95.20;;;;;;3931549;30;20063;-58
2021/12/07 02:40:52;;;;;;;0.00;0.00;;;2.80;95.40;;;;;;3931663;30;20049;-58
2021/12/07 02:43:15;;;;;;;0.00;0.00;;;2.80;95.30;;;;;;3919602;30;20069;-59
2021/12/07 02:45:37;;;;;;;0.00;0.00;;;2.90;95.30;;;;;;3931657;30;20062;-58
2021/12/07 02:48:00;;;;;;;0.00;0.00;;;3.00;95.10;;;;;;3931608;30;20059;-62
2021/12/07 02:50:23;;;;;;;0.00;0.00;;;3.10;94.80;;;;;;3931237;30;20723;-58
2021/12/07 02:52:47;;;;;;;0.00;0.00;;;3.10;94.80;;;;;;3931751;30;20511;-58
2021/12/07 02:55:11;;;;;;;0.00;0.00;;;3.20;94.70;;;;;;3919201;30;20110;-59
2021/12/07 02:57:34;;;;;;;0.00;0.00;;;3.30;94.60;;;;;;3944030;30;20055;-58
2021/12/07 03:00:03;;;;;;;0.00;0.00;;;3.30;94.70;;;;;;3931540;30;20538;-60
2021/12/07 03:02:26;;;;;;;0.00;0.00;;;3.40;94.50;;;;;;3918659;30;20171;-60
2021/12/07 03:05:03;;;;;;;0.00;0.00;;;3.40;94.40;;;;;;3943741;30;20502;-58
2021/12/07 03:26:07;;;;;;;0.00;0.00;;;3.10;94.90;;;;;;3931014;30;20067;-58
2021/12/07 03:28:37;;;;;;;0.00;0.00;;;3.20;94.80;;;;;;3930656;30;20112;-59
2021/12/07 03:31:02;;;;;;;0.00;0.00;;;3.10;94.70;;;;;;3930826;30;20090;-58
2021/12/07 03:33:25;;;;;;;0.00;0.00;;;3.20;94.90;;;;;;3930973;30;20424;-60
2021/12/07 03:35:48;;;;;;;0.00;0.00;;;3.00;94.90;;;;;;3933009;30;20059;-60
2021/12/07 03:38:11;;;;;;;0.00;0.00;;;2.90;95.20;;;;;;3945167;30;20530;-59
2021/12/07 03:40:34;;;;;;;0.00;0.00;;;2.70;95.70;;;;;;3920868;30;20056;-59
2021/12/07 03:42:57;;;;;;;0.00;0.00;;;2.50;96.00;;;;;;3945637;30;20071;-58
2021/12/07 03:45:20;;;;;;;0.00;0.00;;;2.70;96.20;;;;;;3945579;30;20431;-58
2021/12/07 03:47:43;;;;;;;0.00;0.00;;;2.90;95.90;;;;;;3957969;30;20578;-59
2021/12/07 03:50:08;;;;;;;0.00;0.00;;;3.00;95.50;;;;;;3933036;30;20560;-61
2021/12/07 03:52:30;;;;;;;0.00;0.00;;;3.00;95.40;;;;;;3933793;30;20063;-60
2021/12/07 03:54:53;;;;;;;0.00;0.00;;;3.00;95.40;;;;;;3945651;30;20040;-61
2021/12/07 03:57:15;;;;;;;0.00;0.00;;;3.00;95.20;;;;;;3944330;30;20078;-62
2021/12/07 03:59:39;;;;;;;0.00;0.00;;;3.10;95.20;;;;;;3933125;30;20664;-58
2021/12/07 04:02:02;;;;;;;0.00;0.00;;;3.20;94.90;;;;;;3932610;30;20139;-61
2021/12/07 04:04:25;;;;;;;0.00;0.00;;;3.20;94.90;;;;;;3932616;30;20084;-59
2021/12/07 04:06:48;;;;;;;0.00;0.00;;;3.40;94.90;;;;;;3945429;30;20538;-63
2021/12/07 04:09:11;;;;;;;0.00;0.00;;;3.50;94.70;;;;;;3945133;30;20047;-58
2021/12/07 04:11:33;;;;;;;0.00;0.00;;;3.50;94.40;;;;;;3945059;30;20078;-59
2021/12/07 04:13:56;;;;;;;0.00;0.00;;;3.60;94.40;;;;;;3945149;30;20066;-61
2021/12/07 04:16:22;;;;;;;0.00;0.00;;;3.70;94.20;;;;;;3944746;30;20083;-59
2021/12/07 04:18:48;;;;;;;0.00;0.00;;;3.80;94.00;;;;;;3932653;30;20040;-61
2021/12/07 04:21:11;;;;;;;0.00;0.00;;;3.70;93.80;;;;;;3944954;30;20422;-60
2021/12/07 04:23:35;;;;;;;0.00;0.00;;;3.70;93.80;;;;;;3944909;30;20094;-61
2021/12/07 04:25:59;;;;;;;0.00;0.00;;;3.80;93.50;;;;;;3906493;30;20056;-61
2021/12/07 04:28:22;;;;;;;0.00;0.00;;;3.80;93.50;;;;;;3929849;30;20610;-58
2021/12/07 04:30:45;;;;;;;0.00;0.00;;;3.90;93.50;;;;;;3929498;30;20485;-60
2021/12/07 04:33:09;;;;;;;0.00;0.00;;;4.00;93.30;;;;;;3930015;30;20064;-62
2021/12/07 04:35:32;;;;;;;0.00;0.00;;;4.10;93.10;;;;;;3930237;30;20052;-59
2021/12/07 04:37:56;;;;;;;0.00;0.00;;;4.10;93.10;;;;;;3930228;30;20056;-58
2021/12/07 04:40:21;;;;;;;0.00;0.00;;;4.10;93.20;;;;;;3929813;30;20488;-62
2021/12/07 04:42:45;;;;;;;0.00;0.00;;;4.10;93.10;;;;;;3942461;30;20051;-61
2021/12/07 04:45:14;;;;;;;0.00;0.00;;;4.00;93.10;;;;;;3930224;30;20059;-62
2021/12/07 04:47:54;;;;;;;0.00;0.00;;;4.10;93.20;;;;;;3930051;30;20147;-61
2021/12/07 04:58:20;;;;;;;0.00;0.00;;;4.00;93.10;;;;;;3929840;30;20060;-59
2021/12/07 05:00:42;;;;;;;0.00;0.00;;;4.10;92.90;;;;;;3929831;30;20509;-58
2021/12/07 05:03:10;;;;;;;0.00;0.00;;;4.10;92.90;;;;;;3917782;30;20053;-58
2021/12/07 05:05:38;;;;;;;0.00;0.00;;;4.20;92.90;;;;;;3930040;30;20096;-56
2021/12/07 05:08:04;;;;;;;0.00;0.00;;;4.30;92.80;;;;;;3929633;30;20101;-58
2021/12/07 05:13:23;;;;;;;0.00;0.00;;;4.20;92.80;;;;;;3929739;30;20134;-59
2021/12/07 05:39:18;;;;;;;0.00;0.00;;;3.80;93.80;;;;;;3915168;30;20196;-59
2021/12/07 05:41:40;;;;;;;0.00;0.00;;;3.80;93.80;;;;;;3927193;30;20044;-58
2021/12/07 05:44:04;;;;;;;0.00;0.00;;;3.90;93.90;;;;;;3915164;30;20091;-58
2021/12/07 05:46:26;;;;;;;0.00;0.00;;;3.90;93.90;;;;;;3914700;30;20431;-58
2021/12/07 05:48:49;;;;;;;0.00;0.00;;;3.90;93.90;;;;;;3915181;30;20068;-58
2021/12/07 05:51:11;;;;;;;0.00;0.00;;;4.00;93.90;;;;;;3914785;30;20056;-59
2021/12/07 05:53:35;;;;;;;0.00;0.00;;;4.00;93.70;;;;;;3903166;30;20416;-58
2021/12/07 05:55:58;;;;;;;0.00;0.00;;;4.00;93.70;;;;;;3927409;30;20087;-58
2021/12/07 05:58:21;;;;;;;0.00;0.00;;;4.00;93.70;;;;;;3902838;30;20105;-58
2021/12/07 06:00:45;;;;;;;0.00;0.00;;;4.00;93.60;;;;;;3915035;30;20103;-59
2021/12/07 06:03:10;;;;;;;0.00;0.00;;;3.90;93.70;;;;;;3930044;30;20117;-58
2021/12/07 06:05:33;;;;;;;0.00;0.00;;;3.80;93.80;;;;;;3930206;30;20132;-57
2021/12/07 06:07:57;;;;;;;0.00;0.00;;;3.80;93.80;;;;;;3929956;30;20128;-58
2021/12/07 06:10:20;;;;;;;0.00;0.00;;;3.80;93.90;;;;;;3917415;30;20116;-60
2021/12/07 06:12:43;;;;;;;0.00;0.00;;;3.90;93.90;;;;;;3917824;30;20091;-61
2021/12/07 06:15:06;;;;;;;0.00;0.00;;;3.80;93.80;;;;;;3917770;30;20091;-61
2021/12/07 06:17:30;;;;;;;0.00;0.00;;;3.80;93.90;;;;;;3917641;30;20053;-61
2021/12/07 06:19:52;;;;;;;0.00;0.00;;;3.80;94.00;;;;;;3929853;30;20094;-58
2021/12/07 06:22:14;;;;;;;0.00;0.00;;;3.90;94.00;;;;;;3929044;30;20135;-59
2021/12/07 06:24:38;;;;;;;0.00;0.00;;;3.90;93.90;;;;;;3934989;30;20058;-57
2021/12/07 06:27:00;;;;;;;0.00;0.00;;;3.90;93.80;;;;;;3932088;30;20055;-61
2021/12/07 06:29:22;;;;;;;0.00;0.00;;;3.90;93.80;;;;;;3944418;30;20062;-61
2021/12/07 06:31:45;;;;;;;0.00;0.00;;;3.90;93.70;;;;;;3931887;30;20060;-59
2021/12/07 06:34:10;;;;;;;0.00;0.00;;;4.00;93.40;;;;;;3931834;30;20090;-61
2021/12/07 06:36:32;;;;;;;0.00;0.00;;;4.00;93.30;;;;;;3919547;30;20056;-56
2021/12/07 06:38:55;;;;;;;0.00;0.00;;;4.00;93.10;;;;;;3932052;30;20056;-59
2021/12/07 06:41:17;;;;;;;0.00;0.00;;;4.10;93.00;;;;;;3931777;30;20055;-61
2021/12/07 06:43:40;;;;;;;0.00;0.00;;;4.10;92.80;;;;;;3931773;30;20469;-58
2021/12/07 06:46:03;;;;;;;0.00;0.00;;;4.10;92.80;;;;;;3931898;30;20604;-59
2021/12/07 06:48:25;;;;;;;0.00;0.00;;;4.10;92.70;;;;;;3919015;30;20052;-59
2021/12/07 06:50:49;;;;;;;0.00;0.00;;;4.10;92.60;;;;;;3931610;30;20075;-58
2021/12/07 06:53:11;;;;;;;0.00;0.00;;;4.10;92.60;;;;;;3931588;30;20048;-59
2021/12/07 06:55:34;;;;;;;0.00;0.00;;;4.10;92.60;;;;;;3931589;30;20114;-58
2021/12/07 06:57:56;;;;;;;0.00;0.00;;;4.10;92.50;;;;;;3931587;30;20048;-59
2021/12/07 07:00:19;;;;;;;0.00;0.00;;;4.10;92.30;;;;;;3943716;30;20063;-59
2021/12/07 07:02:42;;;;;;;0.00;0.00;;;4.10;92.30;;;;;;3931524;30;20094;-59
2021/12/07 07:05:06;;;;;;;0.00;0.00;;;4.10;92.20;;;;;;3930643;30;20155;-58
2021/12/07 07:07:29;;;;;;;0.00;0.00;;;4.10;92.30;;;;;;3931440;30;20131;-61
2021/12/07 07:09:52;;;;;;;0.00;0.00;;;4.00;92.80;;;;;;3931389;30;20060;-58
2021/12/07 07:12:14;;;;;;;0.00;0.00;;;3.90;93.10;;;;;;3930663;30;20511;-59
2021/12/07 07:14:36;;;;;;;0.00;0.00;;;3.70;93.60;;;;;;3931077;30;20062;-58
2021/12/07 07:16:59;;;;;;;0.00;0.00;;;3.60;93.90;;;;;;3931488;30;20595;-58
2021/12/07 07:19:24;;;;;;;0.00;0.00;;;3.70;94.00;;;;;;3931436;30;20059;-60
2021/12/07 07:21:46;;;;;;;0.00;0.00;;;3.70;93.90;;;;;;3930847;30;20048;-58
2021/12/07 07:24:09;;;;;;;0.00;0.00;;;3.80;94.00;;;;;;3931238;30;20056;-58
2021/12/07 07:26:31;;;;;;;0.00;0.00;;;3.90;94.00;;;;;;3930655;29;20075;-60
2021/12/07 07:28:54;;;;;;;0.00;0.00;;;3.90;93.10;;;;;;3919177;30;20090;-58
2021/12/07 07:31:17;;;;;;;0.00;0.00;;;4.00;92.80;;;;;;3935504;30;20130;-60
2021/12/07 07:33:40;;;;;;;0.00;0.00;;;4.10;92.50;;;;;;3945861;30;20500;-60
2021/12/07 07:36:03;;;;;;;0.00;0.00;;;4.20;92.30;;;;;;3945840;30;20123;-58
2021/12/07 07:38:26;;;;;;;0.00;0.00;;;4.30;92.30;;;;;;3945443;30;20052;-58
2021/12/07 07:40:49;;;;;;;0.00;0.00;;;4.30;92.10;;;;;;3945628;30;20452;-58
2021/12/07 07:43:18;;;;;;;0.00;0.00;;;4.30;92.10;;;;;;3934264;30;20059;-59
2021/12/07 07:46:03;;;;;;;0.00;0.00;;;4.40;92.10;;;;;;3945408;30;20056;-59
2021/12/07 07:48:26;;;;;;;0.00;0.00;;;4.40;92.00;;;;;;3945103;30;20085;-59
2021/12/07 07:50:50;;;;;;;0.00;0.00;;;4.40;92.00;;;;;;3933101;30;20039;-58
2021/12/07 07:53:12;;;;;;;0.00;0.00;;;4.40;91.90;;;;;;3945680;30;20047;-58
2021/12/07 07:55:38;;;;;;;0.00;0.00;;;4.50;92.00;;;;;;3945564;30;20063;-65
2021/12/07 07:58:00;;;;;;;0.00;0.00;;;4.50;92.00;;;;;;3941659;30;20064;-65
2021/12/07 08:00:23;;;;;;;0.00;0.00;;;4.60;91.80;;;;;;3930016;30;20044;-67
2021/12/07 08:02:48;;;;;;;0.00;0.00;;;4.70;91.80;;;;;;3927359;30;20560;-66
2021/12/07 08:05:12;;;;;;;0.00;0.00;;;4.90;91.50;;;;;;3925389;30;20052;-66
2021/12/07 08:07:35;;;;;;;0.00;0.00;;;5.10;91.20;;;;;;3929202;30;20067;-65
2021/12/07 08:09:57;;;;;;;0.00;0.00;;;5.10;90.80;;;;;;3918137;30;20829;-66
2021/12/07 08:12:20;;;;;;;0.00;0.00;;;5.10;90.70;;;;;;3929224;30;20113;-66
2021/12/07 08:14:42;;;;;;;0.00;0.00;;;5.10;90.80;;;;;;3930205;30;20110;-66
2021/12/07 08:17:05;;;;;;;0.00;0.00;;;5.10;90.90;;;;;;3930465;30;20576;-65
2021/12/07 08:19:28;;;;;;;0.00;0.00;;;5.00;90.80;;;;;;3930527;30;20138;-66
2021/12/07 08:21:51;;;;;;;0.00;0.00;;;5.00;90.90;;;;;;3918098;30;20664;-66
2021/12/07 08:24:14;;;;;;;0.00;0.00;;;5.00;90.90;;;;;;3929838;30;20190;-63
2021/12/07 08:26:36;;;;;;;0.00;0.00;;;5.00;90.90;;;;;;3930404;30;20450;-65
2021/12/07 08:29:00;;;;;;;0.00;0.00;;;5.00;91.00;;;;;;3930216;30;20040;-66
2021/12/07 08:31:24;;;;;;;0.00;0.00;;;5.00;90.90;;;;;;3930060;30;20110;-64
2021/12/07 08:33:47;;;;;;;0.00;0.00;;;5.00;90.90;;;;;;3929867;30;20131;-64
2021/12/07 08:36:10;;;;;;;0.00;0.00;;;5.00;90.80;;;;;;3930000;30;20060;-65
2021/12/07 08:38:32;;;;;;;0.00;0.00;;;5.00;90.80;;;;;;3929952;30;20067;-64
2021/12/07 08:40:56;;;;;;;0.00;0.00;;;5.10;90.80;;;;;;3929866;30;20143;-65
2021/12/07 08:43:19;;;;;;;0.00;0.00;;;5.20;90.70;;;;;;3929986;30;20040;-65
2021/12/07 08:45:41;;;;;;;0.00;0.00;;;5.20;90.40;;;;;;3929975;30;20515;-64
2021/12/07 08:48:04;;;;;;;0.00;0.00;;;5.20;90.40;;;;;;3929873;30;20127;-59
2021/12/07 08:50:29;;;;;;;0.00;0.00;;;5.30;90.40;;;;;;3929544;30;20064;-60
2021/12/07 08:52:54;;;;;;;0.00;0.00;;;5.40;90.30;;;;;;3917755;30;20056;-66
2021/12/07 09:00:45;;;;;;;0.00;0.00;;;5.30;90.20;;;;;;3929357;30;20101;-64
2021/12/07 09:03:08;;;;;;;0.00;0.00;;;5.30;90.20;;;;;;3927224;30;20058;-62
2021/12/07 09:05:35;;;;;;;0.00;0.00;;;5.40;90.30;;;;;;3915165;30;20137;-65
2021/12/07 09:07:58;;;;;;;0.00;0.00;;;5.50;90.10;;;;;;3915191;30;20061;-66
2021/12/07 09:10:21;;;;;;;0.00;0.00;;;6.10;89.60;;;;;;3927274;30;20056;-58
2021/12/07 09:12:43;;;;;;;0.00;0.00;;;7.00;88.30;;;;;;3915182;30;20056;-65
2021/12/07 09:15:07;;;;;;;0.00;0.00;;;7.30;86.30;;;;;;3915352;30;20278;-59
2021/12/07 09:17:29;;;;;;;0.00;0.00;;;7.30;85.80;;;;;;3915409;30;20083;-65
2021/12/07 09:19:52;;;;;;;0.00;0.00;;;7.00;85.50;;;;;;3915180;30;20057;-65
2021/12/07 09:22:14;;;;;;;0.00;0.00;;;6.90;85.70;;;;;;3902543;30;20060;-64
2021/12/07 09:24:48;;;;;;;0.00;0.00;;;6.80;85.70;;;;;;3921463;30;20056;-56
2021/12/07 09:27:10;;;;;;;0.00;0.00;;;6.60;86.50;;;;;;3929674;30;20458;-61
2021/12/07 09:29:39;;;;;;;0.00;0.00;;;6.60;86.40;;;;;;3942048;30;20052;-65
2021/12/07 09:32:01;;;;;;;0.00;0.00;;;6.50;86.40;;;;;;3917363;30;20048;-65
2021/12/07 09:34:24;;;;;;;0.00;0.00;;;6.60;86.50;;;;;;3928855;30;20586;-62
2021/12/07 09:36:46;;;;;;;0.00;0.00;;;6.90;85.80;;;;;;3930403;30;20052;-61
2021/12/07 09:39:11;;;;;;;0.00;0.00;;;7.90;84.70;;;;;;3930988;30;20052;-59
2021/12/07 09:41:35;;;;;;;0.00;0.00;;;8.30;83.30;;;;;;3931120;30;20048;-58
2021/12/07 09:43:58;;;;;;;0.00;0.00;;;8.30;82.80;;;;;;3918667;30;20132;-66
2021/12/07 09:46:21;;;;;;;0.00;0.00;;;8.10;82.60;;;;;;3931761;30;20048;-60
2021/12/07 09:48:44;;;;;;;0.00;0.00;;;7.90;82.90;;;;;;3931559;30;20048;-59
2021/12/07 09:51:10;;;;;;;0.00;0.00;;;7.60;82.00;;;;;;3932172;30;20059;-58
2021/12/07 09:53:33;;;;;;;0.00;0.00;;;7.30;83.30;;;;;;3932277;30;20056;-65
2021/12/07 09:55:58;;;;;;;0.00;0.00;;;7.50;83.60;;;;;;3932558;30;20420;-57
2021/12/07 09:58:22;;;;;;;0.00;0.00;;;7.80;83.40;;;;;;3919850;30;20064;-67
2021/12/07 10:00:46;;;;;;;0.00;0.00;;;8.00;82.70;;;;;;3932268;30;20541;-65
2021/12/07 10:03:08;;;;;;;0.00;0.00;;;8.30;81.70;;;;;;3919895;30;20120;-58
2021/12/07 10:05:34;;;;;;;0.00;0.00;;;8.70;80.30;;;;;;3932174;30;20056;-58
2021/12/07 10:07:58;;;;;;;0.00;0.00;;;9.60;78.60;;;;;;3932183;30;20110;-65
2021/12/07 10:10:31;;;;;;;0.00;0.00;;;10.40;73.90;;;;;;3931889;30;20549;-60
2021/12/07 10:12:53;;;;;;;0.00;0.00;;;10.90;74.50;;;;;;3920111;30;20060;-58
2021/12/07 10:15:17;;;;;;;0.00;0.00;;;11.70;72.90;;;;;;3919969;30;20052;-62
2021/12/07 10:17:42;;;;;;;0.00;0.00;;;12.50;71.30;;;;;;3931861;30;20060;-58
2021/12/07 10:20:32;;;;;;;0.00;0.00;;;13.20;69.80;;;;;;3932077;30;20518;-60
2021/12/07 10:22:54;;;;;;;0.00;0.00;;;13.00;65.00;;;;;;3920106;30;20423;-65
2021/12/07 10:25:27;;;;;;;0.00;0.00;;;13.10;66.50;;;;;;3932082;30;20477;-66
2021/12/07 10:27:49;;;;;;;0.00;0.00;;;12.90;64.40;;;;;;3931842;30;20119;-59
2021/12/07 10:30:22;;;;;;;0.00;0.00;;;13.20;65.00;;;;;;3931633;30;20400;-58
2021/12/07 10:33:03;;;;;;;0.00;0.00;;;13.90;63.70;;;;;;3939552;30;20083;-66
2021/12/07 10:35:27;;;;;;;;;;;14.50;62.10;;;;;;3934983;30;20458;-58
2021/12/07 10:38:15;;;;;;;0.00;0.00;;;14.70;60.60;;;;;;3931610;30;20317;-64
2021/12/07 10:40:54;;;;;;;0.00;0.00;;;14.90;58.70;;;;;;3931288;30;20612;-60
2021/12/07 10:43:17;;;;;;;0.00;0.00;;;14.20;57.70;;;;;;3931585;30;20056;-59
2021/12/07 10:45:39;;;;;;;0.00;0.00;;;14.00;58.70;;;;;;3931844;30;20512;-68
2021/12/07 10:48:21;;;;;;;0.00;0.00;;;14.50;57.70;;;;;;3930318;30;20052;-62
2021/12/07 10:50:43;;;;;;;0.00;0.00;;;13.90;59.10;;;;;;3931155;30;20784;-65
2021/12/07 10:53:06;;;;;;;0.00;0.00;;;13.50;59.40;;;;;;3931713;30;20068;-58
2021/12/07 10:55:28;;;;;;;0.00;0.00;;;13.40;60.00;;;;;;3931619;30;20060;-65
2021/12/07 10:58:05;;;;;;;0.00;0.00;;;13.40;60.50;;;;;;3931063;30;20106;-67
2021/12/07 11:00:30;;;;;;;0.00;0.00;;;13.50;59.60;;;;;;3931257;30;20147;-66
2021/12/07 11:02:59;;;;;;;0.00;0.00;;;13.70;59.20;;;;;;3931396;30;20076;-63
2021/12/07 11:05:28;;;;;;;0.00;0.00;;;13.20;57.90;;;;;;3931345;30;20047;-67
2021/12/07 11:07:51;;;;;;;0.00;0.00;;;13.10;58.50;;;;;;3931228;30;20056;-67
2021/12/07 11:10:29;;;;;;;0.00;0.00;;;13.10;58.30;;;;;;3930998;30;20063;-67
2021/12/07 11:15:28;;;;;;;0.00;0.00;;;12.90;60.60;;;;;;3943661;30;20084;-66
2021/12/07 11:17:57;;;;;;;0.00;0.00;;;12.90;61.00;;;;;;3943441;30;20059;-67
2021/12/07 11:20:19;;;;;;;0.00;0.00;;;12.80;61.90;;;;;;3930950;30;20527;-64
2021/12/07 11:22:47;;;;;;;0.00;0.00;;;12.60;62.90;;;;;;3930977;30;20044;-67
2021/12/07 11:25:13;;;;;;;0.00;0.00;;;12.20;64.00;;;;;;3930950;30;20052;-63
2021/12/07 11:30:16;;;;;;;0.00;0.00;;;11.00;65.40;;;;;;3930586;30;20083;-65
2021/12/07 11:32:56;;;;;;;0.00;0.00;;;9.50;69.60;;;;;;3919393;30;20048;-67
2021/12/07 11:35:28;;;;;;;0.00;0.00;;;8.90;73.10;;;;;;3931343;30;20113;-61
2021/12/07 11:37:51;;;;;;;0.00;0.00;;;8.70;73.80;;;;;;3930722;30;20438;-63
2021/12/07 11:40:21;;;;;;;0.00;0.00;;;8.40;74.60;;;;;;3918388;30;20068;-62
2021/12/07 11:42:45;;;;;;;0.00;0.00;;;8.30;74.90;;;;;;3918444;30;20076;-64
2021/12/07 11:45:22;;;;;;;0.00;0.00;;;8.10;76.00;;;;;;3930754;30;20056;-65
2021/12/07 11:47:52;;;;;;;0.00;0.00;;;8.00;76.20;;;;;;3918900;30;20088;-64
2021/12/07 11:50:34;;;;;;;0.00;0.00;;;7.80;77.40;;;;;;3930410;30;20067;-59
2021/12/07 11:53:05;;;;;;;0.00;0.00;;;7.80;78.30;;;;;;3930618;30;20102;-65
2021/12/07 11:55:29;;;;;;;0.00;0.00;;;7.80;78.50;;;;;;3930922;30;20515;-59
2021/12/07 11:57:53;;;;;;;0.00;0.00;;;7.70;78.20;;;;;;3930815;30;20106;-59
2021/12/07 12:00:29;;;;;;;0.00;0.00;;;7.60;78.60;;;;;;3929915;29;20059;-63
2021/12/07 12:02:53;;;;;;;0.00;0.00;;;7.40;79.40;;;;;;3930249;30;20076;-63
2021/12/07 12:05:17;;;;;;;0.00;0.00;;;7.30;80.50;;;;;;3930621;30;20060;-64
2021/12/07 12:07:41;;;;;;;0.00;0.00;;;7.30;80.90;;;;;;3930679;30;20060;-63
2021/12/07 12:10:04;;;;;;;0.00;0.00;;;7.20;81.00;;;;;;3930352;30;20080;-66
2021/12/07 12:12:29;;;;;;;0.00;0.00;;;7.10;81.30;;;;;;3930129;30;20095;-67
2021/12/07 12:15:11;;;;;;;0.00;0.00;;;7.10;81.70;;;;;;3930468;30;20075;-65
2021/12/07 12:18:01;;;;;;;0.00;0.00;;;7.00;82.40;;;;;;3930341;30;20052;-67
2021/12/07 12:20:38;;;;;;;0.00;0.00;;;6.90;82.60;;;;;;3930257;30;20147;-57
2021/12/07 12:23:29;;;;;;;0.00;0.00;;;6.60;83.30;;;;;;3930280;30;20135;-67
2021/12/07 12:25:57;;;;;;;0.00;0.00;;;6.60;83.50;;;;;;3930409;30;20056;-67
2021/12/07 12:28:33;;;;;;;0.00;0.00;;;6.20;84.20;;;;;;3930028;29;20062;-66
2021/12/07 12:30:56;;;;;;;0.00;0.00;;;6.10;85.70;;;;;;3930103;30;20435;-67
2021/12/07 12:33:18;;;;;;;0.00;0.00;;;6.10;85.40;;;;;;3929792;30;20070;-66
2021/12/07 12:35:50;;;;;;;0.00;0.00;;;6.10;85.00;;;;;;3930280;30;20067;-67
2021/12/07 12:38:25;;;;;;;0.00;0.00;;;6.20;85.00;;;;;;3929843;30;20088;-67
2021/12/07 12:41:09;;;;;;;0.00;0.00;;;6.20;85.00;;;;;;3929987;30;20044;-66
2021/12/07 12:43:34;;;;;;;0.00;0.00;;;6.10;85.80;;;;;;3930034;30;20086;-66
2021/12/07 12:46:01;;;;;;;0.00;0.00;;;6.10;86.30;;;;;;3929876;30;20138;-66
2021/12/07 12:48:24;;;;;;;0.00;0.00;;;6.10;85.80;;;;;;3929543;30;20066;-65
2021/12/07 12:50:49;;;;;;;0.00;0.00;;;6.20;85.90;;;;;;3929413;30;20054;-64
2021/12/07 12:53:22;;;;;;;0.00;0.00;;;6.30;85.40;;;;;;3929664;30;20056;-65
2021/12/07 12:55:56;;;;;;;0.00;0.00;;;6.30;85.80;;;;;;3930026;30;20142;-67
2021/12/07 12:58:31;;;;;;;0.00;0.00;;;6.30;85.60;;;;;;3929623;30;20052;-65
2021/12/07 13:01:19;;;;;;;0.00;0.00;;;6.00;86.10;;;;;;3929764;30;20052;-63
2021/12/07 13:03:50;;;;;;;0.00;0.00;;;6.00;86.60;;;;;;3929563;30;20432;-65
2021/12/07 13:06:50;;;;;;;0.00;0.00;;;6.00;86.20;;;;;;3929505;30;20139;-63
2021/12/07 13:09:23;;;;;;;0.00;0.00;;;6.10;86.00;;;;;;3917517;30;20048;-66
2021/12/07 13:11:45;;;;;;;0.00;0.00;;;6.00;85.50;;;;;;3929327;30;20607;-66
2021/12/07 13:14:23;;;;;;;0.00;0.00;;;6.00;86.10;;;;;;3929721;30;20189;-68
2021/12/07 13:16:50;;;;;;;0.00;0.00;;;5.80;85.90;;;;;;3929525;30;20131;-66
2021/12/07 13:19:12;;;;;;;0.00;0.00;;;5.90;86.10;;;;;;3929933;30;20584;-66
2021/12/07 13:21:53;;;;;;;0.00;0.00;;;5.90;86.10;;;;;;3929511;30;20060;-65
2021/12/07 13:24:29;;;;;;;0.00;0.00;;;5.90;85.80;;;;;;3929433;30;20192;-65
2021/12/07 13:26:53;;;;;;;0.00;0.00;;;5.90;85.40;;;;;;3929916;30;20442;-66
2021/12/07 13:29:25;;;;;;;0.00;0.00;;;5.90;85.70;;;;;;3929612;30;20123;-65
2021/12/07 13:31:57;;;;;;;0.00;0.00;;;5.90;85.50;;;;;;3929309;30;20087;-68
2021/12/07 13:34:29;;;;;;;0.00;0.00;;;5.90;85.70;;;;;;3940344;30;20118;-66
2021/12/07 13:36:59;;;;;;;0.00;0.00;;;5.80;85.70;;;;;;3944394;30;20051;-66
2021/12/07 13:39:23;;;;;;;0.00;0.00;;;5.70;86.20;;;;;;3944446;30;20126;-66
2021/12/07 13:42:00;;;;;;;0.00;0.00;;;5.60;87.00;;;;;;3943894;30;20055;-67
2021/12/07 13:44:23;;;;;;;0.00;0.00;;;5.70;87.40;;;;;;3943942;30;20058;-66
2021/12/07 13:46:46;;;;;;;0.00;0.00;;;5.90;87.10;;;;;;3944076;30;20054;-66
2021/12/07 13:49:11;;;;;;;0.00;0.00;;;5.90;86.60;;;;;;3944331;30;20595;-68
2021/12/07 13:51:35;;;;;;;0.00;0.00;;;6.00;86.50;;;;;;3943903;30;20496;-66
2021/12/07 13:54:00;;;;;;;0.00;0.00;;;5.90;85.20;;;;;;3944017;30;20097;-67
2021/12/07 13:56:22;;;;;;;0.00;0.00;;;5.70;85.70;;;;;;3943858;30;20052;-68
2021/12/07 13:59:06;;;;;;;0.00;0.00;;;5.60;86.30;;;;;;3944170;30;20081;-67
2021/12/07 14:01:32;;;;;;;0.00;0.00;;;5.60;86.00;;;;;;3943511;30;20211;-67
2021/12/07 14:03:56;;;;;;;0.00;0.00;;;5.60;85.30;;;;;;3931919;30;20145;-66
2021/12/07 14:06:19;;;;;;;0.00;0.00;;;5.50;85.20;;;;;;3943519;30;20492;-67
2021/12/07 14:08:41;;;;;;;0.00;0.00;;;5.40;85.20;;;;;;3944290;30;20056;-66
2021/12/07 14:11:03;;;;;;;0.00;0.00;;;5.50;85.70;;;;;;3943457;30;20105;-66
2021/12/07 14:13:26;;;;;;;0.00;0.00;;;5.50;85.30;;;;;;3943861;30;20048;-66
2021/12/07 14:16:01;;;;;;;0.00;0.00;;;5.50;85.90;;;;;;3944065;30;20498;-66
2021/12/07 14:18:26;;;;;;;0.00;0.00;;;5.50;86.10;;;;;;3943685;30;20051;-68
2021/12/07 14:20:55;;;;;;;0.00;0.00;;;5.40;86.00;;;;;;3943654;30;20059;-67
2021/12/07 14:23:38;;;;;;;0.00;0.00;;;5.40;86.20;;;;;;3945478;30;20526;-67
2021/12/07 14:26:03;;;;;;;0.00;0.00;;;5.40;85.70;;;;;;3919709;30;20079;-68